Rechercher aéroport 
image banner adimage banner ad
image banner ad

SVBX - Banco Verde

Situé à Portuguesa, Venezuela

ICAO - SVBX, IATA -

Données fournies par Airmate  

Information générale

Coordonnées: N8°43'60" W69°31'60"
Élévation : 215 feet MSL.
 
Voir autres Aéroports à Zulia

Données opérationnelles

Accessible au public
Heure actuelle UTC:
Heure actuelle locale:
Météo à : SVGU - Guanare Ntl ( 41 km )
METAR: SVGU 301402Z AUTO 27002KT NCD 30/22 Q1015
Voir NOTAMs / SUP AIP / TFR affectant cet aéroport [VIEW]
Fréquences de communication: [VIEW]

Pistes:

Identifiant RWYQFULongueur (ft)Largeur (ft)SurfaceLDA (ft)
0900
2700

Coordonnées de l'aéroport

Adresse: Portuguesa Venezuela

Vue satellite de SVBX